createdAt,value
2022-08-26T00:02:20.561Z,33.34
2022-08-26T00:04:49.518Z,33.47
2022-08-26T00:07:18.985Z,33.47
2022-08-26T00:09:47.605Z,33.57
2022-08-26T00:12:17.697Z,33.63
2022-08-26T00:14:46.427Z,33.71
2022-08-26T00:17:15.070Z,33.67
2022-08-26T00:19:43.856Z,33.93
2022-08-26T00:22:12.861Z,33.87
2022-08-26T00:24:48.898Z,33.79
2022-08-26T00:27:19.084Z,33.80
2022-08-26T00:29:49.487Z,33.77
2022-08-26T00:32:19.327Z,33.98
2022-08-26T00:34:48.015Z,33.97
2022-08-26T00:37:16.714Z,33.91
2022-08-26T00:39:45.688Z,34.32
2022-08-26T00:42:14.237Z,34.58
2022-08-26T00:44:46.097Z,34.35
2022-08-26T00:47:21.711Z,34.38
2022-08-26T00:49:51.733Z,34.17
2022-08-26T00:52:22.994Z,34.36
2022-08-26T00:54:58.982Z,34.33
2022-08-26T00:57:28.801Z,34.50
2022-08-26T01:00:01.552Z,34.37
2022-08-26T01:02:32.283Z,34.23
2022-08-26T01:05:04.013Z,33.92
2022-08-26T01:07:34.844Z,34.18
2022-08-26T01:10:07.662Z,34.17
2022-08-26T01:12:42.070Z,34.12
2022-08-26T01:15:17.715Z,34.32
2022-08-26T01:17:46.412Z,33.95
2022-08-26T01:20:31.689Z,33.87
2022-08-26T01:23:04.196Z,33.90
2022-08-26T01:25:35.156Z,33.83
2022-08-26T01:28:23.052Z,33.73
2022-08-26T01:30:54.263Z,33.99
2022-08-26T01:33:29.109Z,33.80
2022-08-26T01:35:58.020Z,33.93
2022-08-26T01:38:28.985Z,33.81
2022-08-26T01:41:01.291Z,33.78
2022-08-26T01:43:32.703Z,33.57
2022-08-26T01:46:03.122Z,34.05
2022-08-26T01:48:35.681Z,33.82
2022-08-26T01:51:06.603Z,33.74
2022-08-26T01:53:37.775Z,33.82
2022-08-26T01:56:11.925Z,33.99
2022-08-26T01:58:45.994Z,34.30
2022-08-26T02:01:14.828Z,34.05
2022-08-26T02:03:52.972Z,34.02
2022-08-26T02:06:22.242Z,34.24
2022-08-26T02:08:56.750Z,34.35
2022-08-26T02:11:25.261Z,34.12
2022-08-26T02:13:58.283Z,34.00
2022-08-26T02:16:31.423Z,34.19
2022-08-26T02:19:02.461Z,34.07
2022-08-26T02:21:33.427Z,34.54
2022-08-26T02:24:12.765Z,34.28
2022-08-26T02:26:42.054Z,34.31
2022-08-26T02:29:17.736Z,33.96
2022-08-26T02:31:48.163Z,34.07
2022-08-26T02:34:21.983Z,33.99
2022-08-26T02:36:51.128Z,34.24
2022-08-26T02:39:22.325Z,34.00
2022-08-26T02:41:51.237Z,34.23
2022-08-26T02:44:20.036Z,34.29
2022-08-26T02:46:48.795Z,33.89
2022-08-26T02:49:18.018Z,34.12
2022-08-26T02:51:46.879Z,34.12
2022-08-26T02:54:15.684Z,33.96
2022-08-26T02:56:45.782Z,34.15
2022-08-26T02:59:14.411Z,34.31
2022-08-26T03:01:45.261Z,34.04
2022-08-26T03:04:14.569Z,34.48
2022-08-26T03:06:43.826Z,34.22
2022-08-26T03:09:21.291Z,34.23
2022-08-26T03:11:55.597Z,34.49
2022-08-26T03:14:24.969Z,34.46
2022-08-26T03:16:55.058Z,34.25
2022-08-26T03:19:25.642Z,34.37
2022-08-26T03:21:58.046Z,34.32
2022-08-26T03:24:27.781Z,34.32
2022-08-26T03:26:57.924Z,34.28
2022-08-26T03:29:44.038Z,34.16
2022-08-26T03:32:18.223Z,34.32
2022-08-26T03:34:46.919Z,34.24
2022-08-26T03:37:15.976Z,34.43
2022-08-26T03:39:45.975Z,34.33
2022-08-26T03:42:16.095Z,34.36
2022-08-26T03:44:44.632Z,34.57
2022-08-26T03:47:13.178Z,34.38
2022-08-26T03:49:42.005Z,34.57
2022-08-26T03:52:10.650Z,34.52
2022-08-26T03:54:39.936Z,34.49
2022-08-26T03:57:09.288Z,34.58
2022-08-26T03:59:41.319Z,34.78
2022-08-26T04:02:11.457Z,34.79
2022-08-26T04:04:40.756Z,34.76
2022-08-26T04:07:09.261Z,34.64
2022-08-26T04:09:37.866Z,34.68
2022-08-26T04:12:09.917Z,34.90
2022-08-26T04:14:40.265Z,34.86
2022-08-26T04:17:08.852Z,34.60
2022-08-26T04:19:37.420Z,34.65
2022-08-26T04:22:06.383Z,34.87
2022-08-26T04:24:35.054Z,34.73
2022-08-26T04:27:03.854Z,34.77
2022-08-26T04:29:32.988Z,34.96
2022-08-26T04:32:04.652Z,34.95
2022-08-26T04:34:34.446Z,34.88
2022-08-26T04:37:03.244Z,34.83
2022-08-26T04:39:31.975Z,34.81
2022-08-26T04:42:01.741Z,34.83
2022-08-26T04:44:31.800Z,34.73
2022-08-26T04:47:00.400Z,34.93
2022-08-26T04:49:35.066Z,34.71
2022-08-26T04:52:05.274Z,34.85
2022-08-26T04:54:34.007Z,34.76
2022-08-26T04:57:02.740Z,34.40
2022-08-26T04:59:32.093Z,34.67
2022-08-26T05:02:03.946Z,34.49
2022-08-26T05:04:36.239Z,34.38
2022-08-26T05:07:06.437Z,34.28
2022-08-26T05:09:34.979Z,34.66
2022-08-26T05:12:03.594Z,34.30
2022-08-26T05:14:34.082Z,34.45
2022-08-26T05:17:03.300Z,34.49
2022-08-26T05:19:33.447Z,34.22
2022-08-26T05:22:03.429Z,34.54
2022-08-26T05:24:32.761Z,34.25
2022-08-26T05:27:03.245Z,34.45
2022-08-26T05:29:40.505Z,34.42
2022-08-26T05:32:08.865Z,34.41
2022-08-26T05:34:40.029Z,34.90
2022-08-26T05:37:13.800Z,34.82
2022-08-26T05:39:51.290Z,35.24
2022-08-26T05:42:20.248Z,35.34
2022-08-26T05:44:56.221Z,35.48
2022-08-26T05:47:25.123Z,35.83
2022-08-26T05:49:54.597Z,36.16
2022-08-26T05:52:26.041Z,36.16
2022-08-26T05:54:55.243Z,36.38
2022-08-26T05:57:23.726Z,36.27
2022-08-26T05:59:52.944Z,36.33
2022-08-26T06:02:21.233Z,36.43
2022-08-26T06:04:49.849Z,36.36
2022-08-26T06:07:40.555Z,36.46
2022-08-26T06:10:31.682Z,36.81
2022-08-26T06:13:09.253Z,36.74
2022-08-26T06:15:43.214Z,36.73
2022-08-26T06:18:14.642Z,36.83
2022-08-26T06:20:53.715Z,36.61
2022-08-26T06:23:46.283Z,36.64
2022-08-26T06:26:17.356Z,36.89
2022-08-26T06:28:46.509Z,36.54
2022-08-26T06:31:16.706Z,36.46
2022-08-26T06:33:46.283Z,36.33
2022-08-26T06:36:19.595Z,36.27
2022-08-26T06:38:49.139Z,36.32
2022-08-26T06:41:21.386Z,36.13
2022-08-26T06:43:50.613Z,36.07
2022-08-26T06:46:22.120Z,36.13
2022-08-26T06:48:51.157Z,36.07
2022-08-26T06:51:23.546Z,36.17
2022-08-26T06:53:55.330Z,36.72
2022-08-26T06:56:27.801Z,37.68
2022-08-26T06:58:56.734Z,37.48
2022-08-26T07:01:27.361Z,37.90
2022-08-26T07:03:58.794Z,37.67
2022-08-26T07:06:28.692Z,38.03
2022-08-26T07:09:04.123Z,38.26
2022-08-26T07:11:35.985Z,38.05
2022-08-26T07:14:06.252Z,37.97
2022-08-26T07:16:35.845Z,38.07
2022-08-26T07:19:11.176Z,37.94
2022-08-26T07:21:42.340Z,37.92
2022-08-26T07:24:11.879Z,37.78
2022-08-26T07:26:43.191Z,38.08
2022-08-26T07:29:12.811Z,38.25
2022-08-26T07:31:42.756Z,37.91
2022-08-26T07:34:13.783Z,37.72
2022-08-26T07:36:42.661Z,37.94
2022-08-26T07:39:11.210Z,37.95
2022-08-26T07:41:41.259Z,37.85
2022-08-26T07:44:11.400Z,38.04
2022-08-26T07:46:40.013Z,38.03
2022-08-26T07:49:09.189Z,37.68
2022-08-26T07:51:38.421Z,38.10
2022-08-26T07:54:07.535Z,37.96
2022-08-26T07:56:36.325Z,37.92
2022-08-26T07:59:13.856Z,37.48
2022-08-26T08:01:45.052Z,37.91
2022-08-26T08:04:14.682Z,37.69
2022-08-26T08:06:43.969Z,37.82
2022-08-26T08:09:13.691Z,37.68
2022-08-26T08:11:42.720Z,37.77
2022-08-26T08:14:13.782Z,37.48
2022-08-26T08:16:42.580Z,37.34
2022-08-26T08:19:16.180Z,37.32
2022-08-26T08:21:44.895Z,37.26
2022-08-26T08:24:13.622Z,37.56
2022-08-26T08:26:42.525Z,37.50
2022-08-26T08:29:10.953Z,37.37
2022-08-26T08:31:58.465Z,37.75
2022-08-26T08:34:29.381Z,37.66
2022-08-26T08:36:58.431Z,37.35
2022-08-26T08:39:27.591Z,37.22
2022-08-26T08:42:16.239Z,36.96
2022-08-26T08:44:51.941Z,37.02
2022-08-26T08:47:30.918Z,37.02
2022-08-26T08:50:04.459Z,36.73
2022-08-26T08:52:36.905Z,36.56
2022-08-26T08:55:11.055Z,36.56
2022-08-26T08:57:53.654Z,36.48
2022-08-26T09:00:30.403Z,36.18
2022-08-26T09:03:05.103Z,36.01
2022-08-26T09:05:40.494Z,36.07
2022-08-26T09:08:13.007Z,36.11
2022-08-26T09:10:45.105Z,36.04
2022-08-26T09:13:25.280Z,35.74
2022-08-26T09:16:04.437Z,36.04
2022-08-26T09:18:52.416Z,36.88
2022-08-26T09:21:23.811Z,36.98
2022-08-26T09:23:55.833Z,36.83
2022-08-26T09:26:30.635Z,36.95
2022-08-26T09:29:02.585Z,36.66
2022-08-26T09:31:34.272Z,36.87
2022-08-26T09:34:17.341Z,36.80
2022-08-26T09:36:49.150Z,36.75
2022-08-26T09:39:30.854Z,36.71
2022-08-26T09:42:16.687Z,36.63
2022-08-26T09:44:55.999Z,36.44
2022-08-26T09:47:30.374Z,36.44
2022-08-26T09:50:12.553Z,36.53
2022-08-26T09:52:42.746Z,36.48
2022-08-26T09:55:17.311Z,36.02
2022-08-26T09:57:48.657Z,36.04
2022-08-26T10:00:30.830Z,35.65
2022-08-26T10:03:01.216Z,35.93
2022-08-26T10:05:40.138Z,35.88
2022-08-26T10:08:21.280Z,36.24
2022-08-26T10:10:53.444Z,36.44
2022-08-26T10:13:28.011Z,36.41
2022-08-26T10:16:05.582Z,36.19
2022-08-26T10:18:38.626Z,36.18
2022-08-26T10:21:37.052Z,36.36
2022-08-26T10:24:08.083Z,37.17
2022-08-26T10:26:46.172Z,37.43
2022-08-26T10:29:20.076Z,37.19
2022-08-26T10:31:58.777Z,37.32
2022-08-26T10:34:32.852Z,37.21
2022-08-26T10:37:13.857Z,36.85
2022-08-26T10:39:51.973Z,36.53
2022-08-26T10:42:33.273Z,37.18
2022-08-26T10:45:11.886Z,36.84
2022-08-26T10:47:45.823Z,36.72
2022-08-26T10:50:14.687Z,37.06
2022-08-26T10:52:59.035Z,37.45
2022-08-26T10:55:37.286Z,36.49
2022-08-26T10:58:29.322Z,36.50
2022-08-26T11:01:23.832Z,36.51
2022-08-26T11:04:00.489Z,36.63
2022-08-26T11:06:31.468Z,36.76
2022-08-26T11:09:03.830Z,36.90
2022-08-26T11:11:50.180Z,36.46
2022-08-26T11:14:41.994Z,36.91
2022-08-26T11:17:56.638Z,36.39
2022-08-26T11:20:35.962Z,36.91
2022-08-26T11:23:40.487Z,36.60
2022-08-26T11:26:35.490Z,36.75
2022-08-26T11:29:12.958Z,36.13
2022-08-26T11:31:57.042Z,36.24
2022-08-26T11:34:56.410Z,36.67
2022-08-26T11:37:51.250Z,36.55
2022-08-26T11:40:23.056Z,36.59
2022-08-26T11:42:59.766Z,36.65
2022-08-26T11:45:35.379Z,37.00
2022-08-26T11:48:16.886Z,37.08
2022-08-26T11:50:55.297Z,37.29
2022-08-26T11:53:26.107Z,37.10
2022-08-26T11:55:58.311Z,37.10
2022-08-26T11:58:30.268Z,37.16
2022-08-26T12:01:03.514Z,37.27
2022-08-26T12:03:38.012Z,37.71
2022-08-26T12:06:14.221Z,37.57
2022-08-26T12:08:45.506Z,37.56
2022-08-26T12:11:23.176Z,37.21
2022-08-26T12:13:58.374Z,37.44
2022-08-26T12:16:29.607Z,37.50
2022-08-26T12:18:59.142Z,37.78
2022-08-26T12:21:34.613Z,38.11
2022-08-26T12:24:04.949Z,37.77
2022-08-26T12:26:36.224Z,38.26
2022-08-26T12:29:20.381Z,38.58
2022-08-26T12:32:08.895Z,38.75
2022-08-26T12:34:37.675Z,38.56
2022-08-26T12:37:07.170Z,37.95
2022-08-26T12:39:38.442Z,38.39
2022-08-26T12:42:22.974Z,38.28
2022-08-26T12:45:00.673Z,37.79
2022-08-26T12:47:42.223Z,37.68
2022-08-26T12:50:18.526Z,37.73
2022-08-26T12:52:57.645Z,37.50
2022-08-26T12:55:36.633Z,37.58
2022-08-26T12:58:24.728Z,37.35
2022-08-26T13:00:56.833Z,37.43
2022-08-26T13:03:32.765Z,37.10
2022-08-26T13:06:16.456Z,37.32
2022-08-26T13:08:46.596Z,37.24
2022-08-26T13:11:20.650Z,36.98
2022-08-26T13:13:51.874Z,37.10
2022-08-26T13:16:24.577Z,37.06
2022-08-26T13:18:55.245Z,36.95
2022-08-26T13:21:26.371Z,37.12
2022-08-26T13:23:55.930Z,36.99
2022-08-26T13:26:24.732Z,36.99
2022-08-26T13:29:01.640Z,36.50
2022-08-26T13:31:34.740Z,36.83
2022-08-26T13:34:04.391Z,36.53
2022-08-26T13:36:32.992Z,36.65
2022-08-26T13:39:01.611Z,36.38
2022-08-26T13:41:32.016Z,36.35
2022-08-26T13:44:01.043Z,36.21
2022-08-26T13:46:29.825Z,36.79
2022-08-26T13:48:59.876Z,37.06
2022-08-26T13:51:31.433Z,37.50
2022-08-26T13:54:00.566Z,37.47
2022-08-26T13:56:30.932Z,37.21
2022-08-26T13:59:01.359Z,37.06
2022-08-26T14:01:31.730Z,37.13
2022-08-26T14:04:02.842Z,36.63
2022-08-26T14:06:32.124Z,36.56
2022-08-26T14:09:00.548Z,36.40
2022-08-26T14:11:30.332Z,36.59
2022-08-26T14:14:15.272Z,36.33
2022-08-26T14:16:58.862Z,36.07
2022-08-26T14:19:51.634Z,35.98
2022-08-26T14:22:23.277Z,35.90
2022-08-26T14:24:51.897Z,35.93
2022-08-26T14:27:20.475Z,36.08
2022-08-26T14:29:49.103Z,35.88
2022-08-26T14:32:23.480Z,35.58
2022-08-26T14:34:53.711Z,35.41
2022-08-26T14:37:22.821Z,35.57
2022-08-26T14:39:51.540Z,35.70
2022-08-26T14:42:24.540Z,35.38
2022-08-26T14:44:56.956Z,35.17
2022-08-26T14:47:25.921Z,35.43
2022-08-26T14:49:55.778Z,35.41
2022-08-26T14:52:24.483Z,35.41
2022-08-26T14:54:54.821Z,35.45
2022-08-26T14:57:24.422Z,35.93
2022-08-26T14:59:53.212Z,36.20
2022-08-26T15:02:32.683Z,36.30
2022-08-26T15:05:04.513Z,36.77
2022-08-26T15:07:33.239Z,36.92
2022-08-26T15:10:02.043Z,37.64
2022-08-26T15:12:31.502Z,37.51
2022-08-26T15:15:00.351Z,37.67
2022-08-26T15:17:29.248Z,37.85
2022-08-26T15:19:57.755Z,37.90
2022-08-26T15:22:28.524Z,37.80
2022-08-26T15:24:59.198Z,38.20
2022-08-26T15:27:27.825Z,37.89
2022-08-26T15:29:56.367Z,38.12
2022-08-26T15:32:24.999Z,38.17
2022-08-26T15:34:53.496Z,38.06
2022-08-26T15:37:21.987Z,37.96
2022-08-26T15:39:52.225Z,37.95
2022-08-26T15:42:21.651Z,37.59
2022-08-26T15:44:50.547Z,37.77
2022-08-26T15:47:19.294Z,37.71
2022-08-26T15:50:09.288Z,37.42
2022-08-26T15:52:39.320Z,37.24
2022-08-26T15:55:10.635Z,37.22
2022-08-26T15:57:39.222Z,37.22
2022-08-26T16:00:11.868Z,37.24
2022-08-26T16:02:40.370Z,37.16
2022-08-26T16:05:09.716Z,37.63
2022-08-26T16:07:38.304Z,37.36
2022-08-26T16:10:09.312Z,37.51
2022-08-26T16:12:38.102Z,37.49
2022-08-26T16:15:08.049Z,37.48
2022-08-26T16:17:36.609Z,37.72
2022-08-26T16:20:06.182Z,37.31
2022-08-26T16:22:35.039Z,37.84
2022-08-26T16:25:03.598Z,37.67
2022-08-26T16:27:33.638Z,37.73
2022-08-26T16:30:02.276Z,37.90
2022-08-26T16:32:31.995Z,38.05
2022-08-26T16:35:00.644Z,38.25
2022-08-26T16:37:29.193Z,38.60
2022-08-26T16:39:57.814Z,38.47
2022-08-26T16:42:26.373Z,39.13
2022-08-26T16:44:56.321Z,39.17
2022-08-26T16:47:24.902Z,38.95
2022-08-26T16:49:54.234Z,39.21
2022-08-26T16:52:22.788Z,39.42
2022-08-26T16:54:53.461Z,39.01
2022-08-26T16:57:22.147Z,39.10
2022-08-26T16:59:51.178Z,38.38
2022-08-26T17:02:21.225Z,38.00
2022-08-26T17:04:49.706Z,38.06
2022-08-26T17:07:19.119Z,37.63
2022-08-26T17:09:47.823Z,37.51
2022-08-26T17:12:16.644Z,37.35
2022-08-26T17:14:45.794Z,37.02
2022-08-26T17:17:14.415Z,37.17
2022-08-26T17:19:47.166Z,37.05
2022-08-26T17:22:16.614Z,37.35
2022-08-26T17:24:45.265Z,37.27
2022-08-26T17:27:14.089Z,37.24
2022-08-26T17:29:49.947Z,37.38
2022-08-26T17:32:18.588Z,37.31
2022-08-26T17:34:48.485Z,37.86
2022-08-26T17:37:17.542Z,37.53
2022-08-26T17:39:45.815Z,37.60
2022-08-26T17:42:14.411Z,37.63
2022-08-26T17:44:43.073Z,37.58
2022-08-26T17:47:11.684Z,37.99
2022-08-26T17:49:40.733Z,38.06
2022-08-26T17:52:11.730Z,38.94
2022-08-26T17:54:40.419Z,39.19
2022-08-26T17:57:10.772Z,39.61
2022-08-26T17:59:40.971Z,39.85
2022-08-26T18:02:09.645Z,40.05
2022-08-26T18:04:38.230Z,40.96
2022-08-26T18:07:07.149Z,41.41
2022-08-26T18:09:37.158Z,41.29
2022-08-26T18:12:06.617Z,41.72
2022-08-26T18:14:35.467Z,41.75
2022-08-26T18:17:04.394Z,41.21
2022-08-26T18:19:32.860Z,41.17
2022-08-26T18:22:01.527Z,41.24
2022-08-26T18:24:30.527Z,40.37
2022-08-26T18:27:00.386Z,40.36
2022-08-26T18:29:29.277Z,39.92
2022-08-26T18:31:57.860Z,39.40
2022-08-26T18:34:31.687Z,39.26
2022-08-26T18:37:00.691Z,39.26
2022-08-26T18:39:29.254Z,39.40
2022-08-26T18:41:57.897Z,39.02
2022-08-26T18:44:27.895Z,38.92
2022-08-26T18:46:56.419Z,38.97
2022-08-26T18:49:25.032Z,39.57
2022-08-26T18:51:53.630Z,39.17
2022-08-26T18:54:22.580Z,39.30
2022-08-26T18:56:51.198Z,38.98
2022-08-26T18:59:19.952Z,38.70
2022-08-26T19:01:59.832Z,38.71
2022-08-26T19:04:28.672Z,38.88
2022-08-26T19:06:57.275Z,38.92
2022-08-26T19:09:26.499Z,39.21
2022-08-26T19:14:31.272Z,39.12
2022-08-26T19:17:01.617Z,39.18
2022-08-26T19:19:31.915Z,39.31
2022-08-26T19:22:00.706Z,39.42
2022-08-26T19:24:29.725Z,39.50
2022-08-26T19:27:00.061Z,39.81
2022-08-26T19:29:31.575Z,39.87
2022-08-26T19:32:01.997Z,40.05
2022-08-26T19:34:30.774Z,40.14
2022-08-26T19:36:59.302Z,39.89
2022-08-26T19:39:28.087Z,40.15
2022-08-26T19:41:56.898Z,39.77
2022-08-26T19:44:42.798Z,39.89
2022-08-26T19:47:13.507Z,39.90
2022-08-26T19:49:42.098Z,40.11
2022-08-26T19:52:11.983Z,39.91
2022-08-26T19:54:41.116Z,39.99
2022-08-26T19:57:09.726Z,39.85
2022-08-26T19:59:40.390Z,39.95
2022-08-26T20:02:11.058Z,40.01
2022-08-26T20:04:41.973Z,40.02
2022-08-26T20:07:14.194Z,40.02
2022-08-26T20:09:47.359Z,40.16
2022-08-26T20:12:17.507Z,40.14
2022-08-26T20:14:46.505Z,40.20
2022-08-26T20:17:17.197Z,40.11
2022-08-26T20:20:04.611Z,40.10
2022-08-26T20:22:33.680Z,39.87
2022-08-26T20:25:01.997Z,39.89
2022-08-26T20:27:38.375Z,39.99
2022-08-26T20:30:09.877Z,39.93
2022-08-26T20:32:39.548Z,39.87
2022-08-26T20:35:13.859Z,39.73
2022-08-26T20:37:42.723Z,39.62
2022-08-26T20:40:12.214Z,39.63
2022-08-26T20:42:40.884Z,39.62
2022-08-26T20:45:10.801Z,39.38
2022-08-26T20:47:39.412Z,39.49
2022-08-26T20:50:10.300Z,39.51
2022-08-26T20:52:38.880Z,39.48
2022-08-26T20:55:08.237Z,39.60
2022-08-26T20:57:37.475Z,39.49
2022-08-26T21:00:07.509Z,39.51
2022-08-26T21:02:37.186Z,39.43
2022-08-26T21:05:06.570Z,39.34
2022-08-26T21:07:37.519Z,39.36
2022-08-26T21:10:06.580Z,39.23
2022-08-26T21:12:35.622Z,39.28
2022-08-26T21:15:03.967Z,39.31
2022-08-26T21:17:32.746Z,39.33
2022-08-26T21:20:01.345Z,39.11
2022-08-26T21:22:31.572Z,39.16
2022-08-26T21:25:01.664Z,38.78
2022-08-26T21:27:30.359Z,39.22
2022-08-26T21:29:58.942Z,39.39
2022-08-26T21:32:27.629Z,39.26
2022-08-26T21:34:57.092Z,39.11
2022-08-26T21:37:28.032Z,39.08
2022-08-26T21:39:58.068Z,39.20
2022-08-26T21:42:28.069Z,39.05
2022-08-26T21:44:56.672Z,38.84
2022-08-26T21:47:25.640Z,38.95
2022-08-26T21:49:55.167Z,38.92
2022-08-26T21:52:23.656Z,38.65
2022-08-26T21:54:52.253Z,38.71
2022-08-26T21:57:20.949Z,38.69
2022-08-26T21:59:51.415Z,38.72
2022-08-26T22:02:20.418Z,38.91
2022-08-26T22:04:49.473Z,38.64
2022-08-26T22:07:19.249Z,38.75
2022-08-26T22:10:50.636Z,39.04
2022-08-26T22:13:20.543Z,38.69
2022-08-26T22:15:49.932Z,39.02
2022-08-26T22:18:21.512Z,39.03
2022-08-26T22:20:52.801Z,39.17
2022-08-26T22:23:21.951Z,39.23
2022-08-26T22:25:52.215Z,39.15
2022-08-26T22:28:21.128Z,39.01
2022-08-26T22:30:49.838Z,39.01
2022-08-26T22:33:18.817Z,39.09
2022-08-26T22:35:48.111Z,39.16
2022-08-26T22:38:17.069Z,39.46
2022-08-26T22:40:46.282Z,39.36
2022-08-26T22:43:16.567Z,39.61
2022-08-26T22:45:47.726Z,39.24
2022-08-26T22:48:22.406Z,39.01
2022-08-26T22:50:52.211Z,39.01
2022-08-26T22:53:20.790Z,39.41
2022-08-26T22:55:49.926Z,39.50
2022-08-26T22:58:20.614Z,39.63
2022-08-26T23:00:56.719Z,39.79
2022-08-26T23:03:28.721Z,39.90
2022-08-26T23:05:57.367Z,39.44
2022-08-26T23:08:27.523Z,39.41
2022-08-26T23:10:56.225Z,39.51
2022-08-26T23:13:26.160Z,39.38
2022-08-26T23:16:02.495Z,39.29
2022-08-26T23:18:31.327Z,39.24
2022-08-26T23:20:59.912Z,38.92
2022-08-26T23:23:28.813Z,38.55
2022-08-26T23:25:57.365Z,38.63
2022-08-26T23:28:27.520Z,38.59
2022-08-26T23:30:56.004Z,38.54
2022-08-26T23:33:44.635Z,38.52
2022-08-26T23:36:17.040Z,38.84
2022-08-26T23:38:48.569Z,38.50
2022-08-26T23:41:22.498Z,38.14
2022-08-26T23:43:52.954Z,38.22
2022-08-26T23:46:21.873Z,38.07
2022-08-26T23:48:50.393Z,38.10
2022-08-26T23:51:57.547Z,37.90
2022-08-26T23:54:26.501Z,37.97
2022-08-26T23:56:54.858Z,38.11
2022-08-26T23:59:24.971Z,38.20
